sensor_id;sensor_type;location;lat;lon;timestamp;temperature;humidity
5556;DHT22;2801;50.972;7.856;2023-07-09T00:02:24;16.10;99.90
5556;DHT22;2801;50.972;7.856;2023-07-09T00:04:52;16.10;99.90
5556;DHT22;2801;50.972;7.856;2023-07-09T00:09:53;16.10;99.90
5556;DHT22;2801;50.972;7.856;2023-07-09T00:12:20;16.10;99.90
5556;DHT22;2801;50.972;7.856;2023-07-09T00:14:47;16.10;99.90
5556;DHT22;2801;50.972;7.856;2023-07-09T00:17:32;16.10;99.90
5556;DHT22;2801;50.972;7.856;2023-07-09T00:20:05;16.00;99.90
5556;DHT22;2801;50.972;7.856;2023-07-09T00:22:44;16.00;99.90
5556;DHT22;2801;50.972;7.856;2023-07-09T00:25:21;16.00;99.90
5556;DHT22;2801;50.972;7.856;2023-07-09T00:27:48;16.00;99.90
5556;DHT22;2801;50.972;7.856;2023-07-09T00:30:21;15.90;99.90
5556;DHT22;2801;50.972;7.856;2023-07-09T00:32:51;16.00;99.90
5556;DHT22;2801;50.972;7.856;2023-07-09T00:35:20;16.00;99.90
5556;DHT22;2801;50.972;7.856;2023-07-09T00:37:49;15.90;99.90
5556;DHT22;2801;50.972;7.856;2023-07-09T00:40:20;15.90;99.90
5556;DHT22;2801;50.972;7.856;2023-07-09T00:42:51;15.90;99.90
5556;DHT22;2801;50.972;7.856;2023-07-09T00:45:26;15.90;99.90
5556;DHT22;2801;50.972;7.856;2023-07-09T00:47:57;15.80;99.90
5556;DHT22;2801;50.972;7.856;2023-07-09T00:50:46;15.80;99.90
5556;DHT22;2801;50.972;7.856;2023-07-09T00:53:29;15.80;99.90
5556;DHT22;2801;50.972;7.856;2023-07-09T00:56:02;15.80;99.90
5556;DHT22;2801;50.972;7.856;2023-07-09T00:58:34;15.80;99.90
5556;DHT22;2801;50.972;7.856;2023-07-09T01:01:08;15.80;99.90
5556;DHT22;2801;50.972;7.856;2023-07-09T01:03:45;15.70;99.90
5556;DHT22;2801;50.972;7.856;2023-07-09T01:06:19;15.80;99.90
5556;DHT22;2801;50.972;7.856;2023-07-09T01:08:51;15.70;99.90
5556;DHT22;2801;50.972;7.856;2023-07-09T01:11:21;15.70;99.90
5556;DHT22;2801;50.972;7.856;2023-07-09T01:13:51;15.70;99.90
5556;DHT22;2801;50.972;7.856;2023-07-09T01:16:22;15.70;99.90
5556;DHT22;2801;50.972;7.856;2023-07-09T01:18:52;15.70;99.90
5556;DHT22;2801;50.972;7.856;2023-07-09T01:21:19;15.70;99.90
5556;DHT22;2801;50.972;7.856;2023-07-09T01:23:49;15.70;99.90
5556;DHT22;2801;50.972;7.856;2023-07-09T01:26:20;15.60;99.90
5556;DHT22;2801;50.972;7.856;2023-07-09T01:28:55;15.60;99.90
5556;DHT22;2801;50.972;7.856;2023-07-09T01:31:23;15.50;99.90
5556;DHT22;2801;50.972;7.856;2023-07-09T01:33:50;15.50;99.90
5556;DHT22;2801;50.972;7.856;2023-07-09T01:36:19;15.50;99.90
5556;DHT22;2801;50.972;7.856;2023-07-09T01:38:52;15.40;99.90
5556;DHT22;2801;50.972;7.856;2023-07-09T01:41:23;15.40;99.90
5556;DHT22;2801;50.972;7.856;2023-07-09T01:43:50;15.40;99.90
5556;DHT22;2801;50.972;7.856;2023-07-09T01:46:17;15.40;99.90
5556;DHT22;2801;50.972;7.856;2023-07-09T01:48:48;15.40;99.90
5556;DHT22;2801;50.972;7.856;2023-07-09T01:51:16;15.40;99.90
5556;DHT22;2801;50.972;7.856;2023-07-09T01:53:44;15.40;99.90
5556;DHT22;2801;50.972;7.856;2023-07-09T01:56:11;15.40;99.90
5556;DHT22;2801;50.972;7.856;2023-07-09T01:58:38;15.40;99.90
5556;DHT22;2801;50.972;7.856;2023-07-09T02:01:09;15.40;99.90
5556;DHT22;2801;50.972;7.856;2023-07-09T02:03:37;15.30;99.90
5556;DHT22;2801;50.972;7.856;2023-07-09T02:06:04;15.50;99.90
5556;DHT22;2801;50.972;7.856;2023-07-09T02:08:36;15.20;99.90
5556;DHT22;2801;50.972;7.856;2023-07-09T02:11:04;15.20;99.90
5556;DHT22;2801;50.972;7.856;2023-07-09T02:13:31;15.10;99.90
5556;DHT22;2801;50.972;7.856;2023-07-09T02:15:58;15.10;99.90
5556;DHT22;2801;50.972;7.856;2023-07-09T02:18:27;15.00;99.90
5556;DHT22;2801;50.972;7.856;2023-07-09T02:20:55;15.00;99.90
5556;DHT22;2801;50.972;7.856;2023-07-09T02:23:27;15.00;99.90
5556;DHT22;2801;50.972;7.856;2023-07-09T02:25:54;14.90;99.90
5556;DHT22;2801;50.972;7.856;2023-07-09T02:28:22;14.90;99.90
5556;DHT22;2801;50.972;7.856;2023-07-09T02:30:49;14.90;99.90
5556;DHT22;2801;50.972;7.856;2023-07-09T02:33:16;14.90;99.90
5556;DHT22;2801;50.972;7.856;2023-07-09T02:35:43;14.90;99.90
5556;DHT22;2801;50.972;7.856;2023-07-09T02:38:10;14.90;99.90
5556;DHT22;2801;50.972;7.856;2023-07-09T02:40:38;14.90;99.90
5556;DHT22;2801;50.972;7.856;2023-07-09T02:43:05;14.90;99.90
5556;DHT22;2801;50.972;7.856;2023-07-09T02:45:32;15.00;99.90
5556;DHT22;2801;50.972;7.856;2023-07-09T02:47:59;15.00;99.90
5556;DHT22;2801;50.972;7.856;2023-07-09T02:50:26;15.00;99.90
5556;DHT22;2801;50.972;7.856;2023-07-09T02:52:53;14.90;99.90
5556;DHT22;2801;50.972;7.856;2023-07-09T02:55:20;14.80;99.90
5556;DHT22;2801;50.972;7.856;2023-07-09T02:57:47;14.80;99.90
5556;DHT22;2801;50.972;7.856;2023-07-09T03:00:14;14.70;99.90
5556;DHT22;2801;50.972;7.856;2023-07-09T03:02:42;14.70;99.90
5556;DHT22;2801;50.972;7.856;2023-07-09T03:05:09;14.60;99.90
5556;DHT22;2801;50.972;7.856;2023-07-09T03:07:37;14.60;99.90
5556;DHT22;2801;50.972;7.856;2023-07-09T03:10:04;14.60;99.90
5556;DHT22;2801;50.972;7.856;2023-07-09T03:12:31;14.60;99.90
5556;DHT22;2801;50.972;7.856;2023-07-09T03:14:59;14.60;99.90
5556;DHT22;2801;50.972;7.856;2023-07-09T03:17:26;14.60;99.90
5556;DHT22;2801;50.972;7.856;2023-07-09T03:19:53;14.60;99.90
5556;DHT22;2801;50.972;7.856;2023-07-09T03:22:20;14.60;99.90
5556;DHT22;2801;50.972;7.856;2023-07-09T03:24:47;14.50;99.90
5556;DHT22;2801;50.972;7.856;2023-07-09T03:27:13;14.50;99.90
5556;DHT22;2801;50.972;7.856;2023-07-09T03:29:40;14.50;99.90
5556;DHT22;2801;50.972;7.856;2023-07-09T03:32:07;14.50;99.90
5556;DHT22;2801;50.972;7.856;2023-07-09T03:34:34;14.50;99.90
5556;DHT22;2801;50.972;7.856;2023-07-09T03:37:05;14.60;99.90
5556;DHT22;2801;50.972;7.856;2023-07-09T03:39:32;14.60;99.90
5556;DHT22;2801;50.972;7.856;2023-07-09T03:41:59;14.60;99.90
5556;DHT22;2801;50.972;7.856;2023-07-09T03:44:26;14.50;99.90
5556;DHT22;2801;50.972;7.856;2023-07-09T03:46:53;14.50;99.90
5556;DHT22;2801;50.972;7.856;2023-07-09T03:49:20;14.40;99.90
5556;DHT22;2801;50.972;7.856;2023-07-09T03:51:47;14.40;99.90
5556;DHT22;2801;50.972;7.856;2023-07-09T03:54:14;14.50;99.90
5556;DHT22;2801;50.972;7.856;2023-07-09T03:56:41;14.50;99.90
5556;DHT22;2801;50.972;7.856;2023-07-09T03:59:08;14.50;99.90
5556;DHT22;2801;50.972;7.856;2023-07-09T04:01:35;14.60;99.90
5556;DHT22;2801;50.972;7.856;2023-07-09T04:04:02;14.60;99.90
5556;DHT22;2801;50.972;7.856;2023-07-09T04:06:29;14.70;99.90
5556;DHT22;2801;50.972;7.856;2023-07-09T04:08:56;14.70;99.90
5556;DHT22;2801;50.972;7.856;2023-07-09T04:11:23;14.80;99.90
5556;DHT22;2801;50.972;7.856;2023-07-09T04:13:51;14.80;99.90
5556;DHT22;2801;50.972;7.856;2023-07-09T04:16:18;14.90;99.90
5556;DHT22;2801;50.972;7.856;2023-07-09T04:18:45;14.90;99.90
5556;DHT22;2801;50.972;7.856;2023-07-09T04:21:12;15.00;99.90
5556;DHT22;2801;50.972;7.856;2023-07-09T04:23:38;15.00;99.90
5556;DHT22;2801;50.972;7.856;2023-07-09T04:26:05;15.10;99.90
5556;DHT22;2801;50.972;7.856;2023-07-09T04:28:35;15.20;99.90
5556;DHT22;2801;50.972;7.856;2023-07-09T04:31:02;15.30;99.90
5556;DHT22;2801;50.972;7.856;2023-07-09T04:33:29;15.40;99.90
5556;DHT22;2801;50.972;7.856;2023-07-09T04:35:57;15.50;99.90
5556;DHT22;2801;50.972;7.856;2023-07-09T04:38:24;15.60;99.90
5556;DHT22;2801;50.972;7.856;2023-07-09T04:40:51;15.80;99.90
5556;DHT22;2801;50.972;7.856;2023-07-09T04:43:17;15.90;99.90
5556;DHT22;2801;50.972;7.856;2023-07-09T04:45:44;16.00;99.90
5556;DHT22;2801;50.972;7.856;2023-07-09T04:48:11;16.10;99.90
5556;DHT22;2801;50.972;7.856;2023-07-09T04:50:38;16.30;99.90
5556;DHT22;2801;50.972;7.856;2023-07-09T04:53:07;16.30;99.90
5556;DHT22;2801;50.972;7.856;2023-07-09T04:55:34;16.50;99.90
5556;DHT22;2801;50.972;7.856;2023-07-09T04:58:01;16.60;99.90
5556;DHT22;2801;50.972;7.856;2023-07-09T05:00:27;16.70;99.90
5556;DHT22;2801;50.972;7.856;2023-07-09T05:02:54;16.80;99.90
5556;DHT22;2801;50.972;7.856;2023-07-09T05:05:21;17.00;99.90
5556;DHT22;2801;50.972;7.856;2023-07-09T05:07:50;17.10;99.90
5556;DHT22;2801;50.972;7.856;2023-07-09T05:10:17;17.30;99.90
5556;DHT22;2801;50.972;7.856;2023-07-09T05:12:49;17.60;99.90
5556;DHT22;2801;50.972;7.856;2023-07-09T05:15:19;17.90;99.90
5556;DHT22;2801;50.972;7.856;2023-07-09T05:17:47;18.00;99.90
5556;DHT22;2801;50.972;7.856;2023-07-09T05:20:14;18.20;99.90
5556;DHT22;2801;50.972;7.856;2023-07-09T05:22:42;18.40;99.90
5556;DHT22;2801;50.972;7.856;2023-07-09T05:25:09;18.60;99.90
5556;DHT22;2801;50.972;7.856;2023-07-09T05:27:37;18.80;99.90
5556;DHT22;2801;50.972;7.856;2023-07-09T05:30:05;19.10;99.90
5556;DHT22;2801;50.972;7.856;2023-07-09T05:32:32;19.30;99.90
5556;DHT22;2801;50.972;7.856;2023-07-09T05:34:59;19.50;99.90
5556;DHT22;2801;50.972;7.856;2023-07-09T05:37:27;19.70;99.90
5556;DHT22;2801;50.972;7.856;2023-07-09T05:39:54;20.00;99.90
5556;DHT22;2801;50.972;7.856;2023-07-09T05:42:21;20.20;99.90
5556;DHT22;2801;50.972;7.856;2023-07-09T05:44:48;20.40;99.90
5556;DHT22;2801;50.972;7.856;2023-07-09T05:47:15;20.60;99.90
5556;DHT22;2801;50.972;7.856;2023-07-09T05:49:42;20.80;99.90
5556;DHT22;2801;50.972;7.856;2023-07-09T05:52:09;21.10;99.90
5556;DHT22;2801;50.972;7.856;2023-07-09T05:54:36;21.30;99.90
5556;DHT22;2801;50.972;7.856;2023-07-09T05:57:03;21.50;99.90
5556;DHT22;2801;50.972;7.856;2023-07-09T05:59:30;21.70;99.90
5556;DHT22;2801;50.972;7.856;2023-07-09T06:01:57;21.90;99.90
5556;DHT22;2801;50.972;7.856;2023-07-09T06:04:24;22.00;99.90
5556;DHT22;2801;50.972;7.856;2023-07-09T06:06:53;22.20;99.90
5556;DHT22;2801;50.972;7.856;2023-07-09T06:09:20;22.40;99.90
5556;DHT22;2801;50.972;7.856;2023-07-09T06:11:47;22.60;99.90
5556;DHT22;2801;50.972;7.856;2023-07-09T06:14:14;22.90;99.90
5556;DHT22;2801;50.972;7.856;2023-07-09T06:16:43;23.00;99.90
5556;DHT22;2801;50.972;7.856;2023-07-09T06:19:10;23.10;99.90
5556;DHT22;2801;50.972;7.856;2023-07-09T06:21:39;23.20;99.90
5556;DHT22;2801;50.972;7.856;2023-07-09T06:24:07;23.10;99.90
5556;DHT22;2801;50.972;7.856;2023-07-09T06:26:35;23.20;99.90
5556;DHT22;2801;50.972;7.856;2023-07-09T06:29:02;23.20;99.90
5556;DHT22;2801;50.972;7.856;2023-07-09T06:31:29;23.30;99.90
5556;DHT22;2801;50.972;7.856;2023-07-09T06:33:58;23.40;99.90
5556;DHT22;2801;50.972;7.856;2023-07-09T06:36:26;23.50;99.90
5556;DHT22;2801;50.972;7.856;2023-07-09T06:38:53;23.50;99.90
5556;DHT22;2801;50.972;7.856;2023-07-09T06:41:20;23.70;99.90
5556;DHT22;2801;50.972;7.856;2023-07-09T06:43:47;23.80;99.90
5556;DHT22;2801;50.972;7.856;2023-07-09T06:46:15;24.00;99.90
5556;DHT22;2801;50.972;7.856;2023-07-09T06:48:45;24.10;99.90
5556;DHT22;2801;50.972;7.856;2023-07-09T06:51:13;24.30;99.90
5556;DHT22;2801;50.972;7.856;2023-07-09T06:53:40;24.50;99.90
5556;DHT22;2801;50.972;7.856;2023-07-09T06:56:08;24.70;99.90
5556;DHT22;2801;50.972;7.856;2023-07-09T06:58:36;24.90;99.90
5556;DHT22;2801;50.972;7.856;2023-07-09T07:01:04;25.10;99.90
5556;DHT22;2801;50.972;7.856;2023-07-09T07:03:32;25.40;99.90
5556;DHT22;2801;50.972;7.856;2023-07-09T07:06:01;25.60;99.90
5556;DHT22;2801;50.972;7.856;2023-07-09T07:08:29;25.90;99.90
5556;DHT22;2801;50.972;7.856;2023-07-09T07:10:58;26.10;99.90
5556;DHT22;2801;50.972;7.856;2023-07-09T07:13:32;26.30;99.90
5556;DHT22;2801;50.972;7.856;2023-07-09T07:16:09;26.50;99.90
5556;DHT22;2801;50.972;7.856;2023-07-09T07:18:38;26.60;99.90
5556;DHT22;2801;50.972;7.856;2023-07-09T07:21:05;26.80;99.90
5556;DHT22;2801;50.972;7.856;2023-07-09T07:23:33;27.00;99.90
5556;DHT22;2801;50.972;7.856;2023-07-09T07:26:00;27.20;99.90
5556;DHT22;2801;50.972;7.856;2023-07-09T07:28:27;27.50;99.90
5556;DHT22;2801;50.972;7.856;2023-07-09T07:31:02;27.80;99.90
5556;DHT22;2801;50.972;7.856;2023-07-09T07:33:30;28.30;99.90
5556;DHT22;2801;50.972;7.856;2023-07-09T07:35:57;28.70;99.60
5556;DHT22;2801;50.972;7.856;2023-07-09T07:38:27;28.90;99.30
5556;DHT22;2801;50.972;7.856;2023-07-09T07:40:54;29.00;99.40
5556;DHT22;2801;50.972;7.856;2023-07-09T07:43:21;29.10;99.30
5556;DHT22;2801;50.972;7.856;2023-07-09T07:45:48;29.10;98.80
5556;DHT22;2801;50.972;7.856;2023-07-09T07:48:15;29.00;98.40
5556;DHT22;2801;50.972;7.856;2023-07-09T07:50:43;29.00;98.40
5556;DHT22;2801;50.972;7.856;2023-07-09T07:53:12;28.90;98.70
5556;DHT22;2801;50.972;7.856;2023-07-09T07:55:40;28.90;98.10
5556;DHT22;2801;50.972;7.856;2023-07-09T07:58:12;28.70;98.30
5556;DHT22;2801;50.972;7.856;2023-07-09T08:00:40;28.70;98.30
5556;DHT22;2801;50.972;7.856;2023-07-09T08:03:07;28.70;97.90
5556;DHT22;2801;50.972;7.856;2023-07-09T08:05:34;28.70;97.60
5556;DHT22;2801;50.972;7.856;2023-07-09T08:08:01;28.70;97.40
5556;DHT22;2801;50.972;7.856;2023-07-09T08:10:28;28.70;97.60
5556;DHT22;2801;50.972;7.856;2023-07-09T08:12:56;28.90;97.50
5556;DHT22;2801;50.972;7.856;2023-07-09T08:15:27;29.20;96.60
5556;DHT22;2801;50.972;7.856;2023-07-09T08:17:54;29.80;95.50
5556;DHT22;2801;50.972;7.856;2023-07-09T08:20:21;30.50;94.00
5556;DHT22;2801;50.972;7.856;2023-07-09T08:22:48;31.00;92.80
5556;DHT22;2801;50.972;7.856;2023-07-09T08:25:16;31.30;91.80
5556;DHT22;2801;50.972;7.856;2023-07-09T08:27:42;31.40;91.40
5556;DHT22;2801;50.972;7.856;2023-07-09T08:30:10;31.30;91.10
5556;DHT22;2801;50.972;7.856;2023-07-09T08:32:37;31.20;91.00
5556;DHT22;2801;50.972;7.856;2023-07-09T08:35:04;31.00;91.20
5556;DHT22;2801;50.972;7.856;2023-07-09T08:37:51;30.90;91.70
5556;DHT22;2801;50.972;7.856;2023-07-09T08:40:19;31.10;91.30
5556;DHT22;2801;50.972;7.856;2023-07-09T08:42:50;31.50;89.80
5556;DHT22;2801;50.972;7.856;2023-07-09T08:45:50;32.20;87.10
5556;DHT22;2801;50.972;7.856;2023-07-09T08:48:32;32.90;82.80
5556;DHT22;2801;50.972;7.856;2023-07-09T08:51:16;33.30;81.50
5556;DHT22;2801;50.972;7.856;2023-07-09T08:54:00;33.10;81.70
5556;DHT22;2801;50.972;7.856;2023-07-09T08:56:31;32.70;82.30
5556;DHT22;2801;50.972;7.856;2023-07-09T08:59:02;32.30;84.30
5556;DHT22;2801;50.972;7.856;2023-07-09T09:01:37;31.90;86.00
5556;DHT22;2801;50.972;7.856;2023-07-09T09:06:53;31.50;86.10
5556;DHT22;2801;50.972;7.856;2023-07-09T09:09:44;31.40;86.50
5556;DHT22;2801;50.972;7.856;2023-07-09T09:17:43;31.10;86.60
5556;DHT22;2801;50.972;7.856;2023-07-09T09:20:17;31.10;87.20
5556;DHT22;2801;50.972;7.856;2023-07-09T09:25:39;31.10;88.20
5556;DHT22;2801;50.972;7.856;2023-07-09T09:28:08;31.10;88.30
5556;DHT22;2801;50.972;7.856;2023-07-09T09:30:35;31.10;85.90
5556;DHT22;2801;50.972;7.856;2023-07-09T09:33:07;31.20;86.30
5556;DHT22;2801;50.972;7.856;2023-07-09T09:35:41;31.20;85.40
5556;DHT22;2801;50.972;7.856;2023-07-09T09:38:19;31.30;86.10
5556;DHT22;2801;50.972;7.856;2023-07-09T09:40:48;31.30;85.10
5556;DHT22;2801;50.972;7.856;2023-07-09T09:43:18;31.40;84.10
5556;DHT22;2801;50.972;7.856;2023-07-09T09:45:49;31.40;84.00
5556;DHT22;2801;50.972;7.856;2023-07-09T09:48:29;31.50;85.10
5556;DHT22;2801;50.972;7.856;2023-07-09T09:50:59;31.70;85.00
5556;DHT22;2801;50.972;7.856;2023-07-09T09:53:38;31.90;83.00
5556;DHT22;2801;50.972;7.856;2023-07-09T09:56:47;32.10;82.00
5556;DHT22;2801;50.972;7.856;2023-07-09T09:59:20;32.20;80.90
5556;DHT22;2801;50.972;7.856;2023-07-09T10:02:05;32.30;82.40
5556;DHT22;2801;50.972;7.856;2023-07-09T10:04:50;32.50;80.10
5556;DHT22;2801;50.972;7.856;2023-07-09T10:07:31;32.70;78.70
5556;DHT22;2801;50.972;7.856;2023-07-09T10:10:08;33.10;77.50
5556;DHT22;2801;50.972;7.856;2023-07-09T10:12:52;33.40;76.50
5556;DHT22;2801;50.972;7.856;2023-07-09T10:16:06;33.70;74.30
5556;DHT22;2801;50.972;7.856;2023-07-09T10:18:46;34.20;73.70
5556;DHT22;2801;50.972;7.856;2023-07-09T10:22:14;34.60;71.30
5556;DHT22;2801;50.972;7.856;2023-07-09T10:34:16;36.80;61.40
5556;DHT22;2801;50.972;7.856;2023-07-09T10:36:44;36.40;63.70
5556;DHT22;2801;50.972;7.856;2023-07-09T10:39:26;35.90;63.40
5556;DHT22;2801;50.972;7.856;2023-07-09T10:42:00;35.40;64.30
5556;DHT22;2801;50.972;7.856;2023-07-09T10:44:34;35.10;65.10
5556;DHT22;2801;50.972;7.856;2023-07-09T10:47:12;34.70;65.90
5556;DHT22;2801;50.972;7.856;2023-07-09T10:49:49;34.60;63.80
5556;DHT22;2801;50.972;7.856;2023-07-09T10:52:31;35.10;61.30
5556;DHT22;2801;50.972;7.856;2023-07-09T10:55:35;35.90;59.80
5556;DHT22;2801;50.972;7.856;2023-07-09T10:58:37;36.50;57.60
5556;DHT22;2801;50.972;7.856;2023-07-09T11:01:13;36.60;57.30
5556;DHT22;2801;50.972;7.856;2023-07-09T11:03:54;36.10;58.20
5556;DHT22;2801;50.972;7.856;2023-07-09T11:09:19;36.20;56.80
5556;DHT22;2801;50.972;7.856;2023-07-09T11:11:55;36.40;57.20
5556;DHT22;2801;50.972;7.856;2023-07-09T11:14:34;36.60;58.70
5556;DHT22;2801;50.972;7.856;2023-07-09T11:17:19;36.50;58.30
5556;DHT22;2801;50.972;7.856;2023-07-09T11:19:55;36.00;58.40
5556;DHT22;2801;50.972;7.856;2023-07-09T11:22:39;35.70;60.00
5556;DHT22;2801;50.972;7.856;2023-07-09T11:25:14;35.40;59.10
5556;DHT22;2801;50.972;7.856;2023-07-09T11:28:00;35.10;59.30
5556;DHT22;2801;50.972;7.856;2023-07-09T11:30:30;34.90;60.00
5556;DHT22;2801;50.972;7.856;2023-07-09T11:33:05;34.70;61.70
5556;DHT22;2801;50.972;7.856;2023-07-09T11:35:53;34.60;60.80
5556;DHT22;2801;50.972;7.856;2023-07-09T11:38:45;34.50;60.90
5556;DHT22;2801;50.972;7.856;2023-07-09T11:41:43;34.40;60.30
5556;DHT22;2801;50.972;7.856;2023-07-09T11:44:20;34.40;62.30
5556;DHT22;2801;50.972;7.856;2023-07-09T11:49:57;34.30;60.00
5556;DHT22;2801;50.972;7.856;2023-07-09T11:52:41;34.30;61.50
5556;DHT22;2801;50.972;7.856;2023-07-09T11:58:18;34.30;60.20
5556;DHT22;2801;50.972;7.856;2023-07-09T12:00:48;34.20;61.00
5556;DHT22;2801;50.972;7.856;2023-07-09T12:05:54;34.20;62.40
5556;DHT22;2801;50.972;7.856;2023-07-09T12:08:33;34.20;62.30
5556;DHT22;2801;50.972;7.856;2023-07-09T12:11:03;34.20;62.70
5556;DHT22;2801;50.972;7.856;2023-07-09T12:13:38;34.10;61.10
5556;DHT22;2801;50.972;7.856;2023-07-09T12:18:52;34.10;60.50
5556;DHT22;2801;50.972;7.856;2023-07-09T12:21:20;34.20;61.70
5556;DHT22;2801;50.972;7.856;2023-07-09T12:23:49;34.20;61.80
5556;DHT22;2801;50.972;7.856;2023-07-09T12:26:18;34.30;63.00
5556;DHT22;2801;50.972;7.856;2023-07-09T12:28:53;34.30;61.30
5556;DHT22;2801;50.972;7.856;2023-07-09T12:31:26;34.30;60.30
5556;DHT22;2801;50.972;7.856;2023-07-09T12:33:57;34.30;60.40
5556;DHT22;2801;50.972;7.856;2023-07-09T12:36:27;34.20;59.90
5556;DHT22;2801;50.972;7.856;2023-07-09T12:39:01;34.20;60.70
5556;DHT22;2801;50.972;7.856;2023-07-09T12:41:37;34.30;62.90
5556;DHT22;2801;50.972;7.856;2023-07-09T12:44:18;34.40;59.70
5556;DHT22;2801;50.972;7.856;2023-07-09T12:46:48;34.50;59.50
5556;DHT22;2801;50.972;7.856;2023-07-09T12:49:29;34.60;59.00
5556;DHT22;2801;50.972;7.856;2023-07-09T12:52:00;34.70;58.80
5556;DHT22;2801;50.972;7.856;2023-07-09T12:54:30;34.70;58.50
5556;DHT22;2801;50.972;7.856;2023-07-09T12:57:13;34.60;57.90
5556;DHT22;2801;50.972;7.856;2023-07-09T12:59:45;34.70;58.40
5556;DHT22;2801;50.972;7.856;2023-07-09T13:04:49;34.70;58.00
5556;DHT22;2801;50.972;7.856;2023-07-09T13:09:54;34.90;58.30
5556;DHT22;2801;50.972;7.856;2023-07-09T13:12:32;35.00;57.60
5556;DHT22;2801;50.972;7.856;2023-07-09T13:15:00;35.10;58.00
5556;DHT22;2801;50.972;7.856;2023-07-09T13:17:30;35.20;57.20
5556;DHT22;2801;50.972;7.856;2023-07-09T13:20:23;35.30;58.20
5556;DHT22;2801;50.972;7.856;2023-07-09T13:22:51;35.20;56.90
5556;DHT22;2801;50.972;7.856;2023-07-09T13:25:18;35.10;55.50
5556;DHT22;2801;50.972;7.856;2023-07-09T13:28:02;35.00;55.80
5556;DHT22;2801;50.972;7.856;2023-07-09T13:30:29;34.90;56.50
5556;DHT22;2801;50.972;7.856;2023-07-09T13:32:58;35.00;57.20
5556;DHT22;2801;50.972;7.856;2023-07-09T13:35:25;34.90;57.30
5556;DHT22;2801;50.972;7.856;2023-07-09T13:37:52;34.90;57.20
5556;DHT22;2801;50.972;7.856;2023-07-09T13:40:19;34.90;57.80
5556;DHT22;2801;50.972;7.856;2023-07-09T13:42:47;35.00;58.60
5556;DHT22;2801;50.972;7.856;2023-07-09T13:45:24;35.20;58.90
5556;DHT22;2801;50.972;7.856;2023-07-09T13:47:53;35.40;58.40
5556;DHT22;2801;50.972;7.856;2023-07-09T13:50:20;35.50;59.00
5556;DHT22;2801;50.972;7.856;2023-07-09T13:52:49;35.50;59.60
5556;DHT22;2801;50.972;7.856;2023-07-09T13:55:20;35.60;59.80
5556;DHT22;2801;50.972;7.856;2023-07-09T13:57:50;35.60;59.10
5556;DHT22;2801;50.972;7.856;2023-07-09T14:00:18;35.70;58.70
5556;DHT22;2801;50.972;7.856;2023-07-09T14:02:45;35.60;58.00
5556;DHT22;2801;50.972;7.856;2023-07-09T14:05:13;35.50;58.90
5556;DHT22;2801;50.972;7.856;2023-07-09T14:07:41;35.30;59.60
5556;DHT22;2801;50.972;7.856;2023-07-09T14:10:13;35.20;58.60
5556;DHT22;2801;50.972;7.856;2023-07-09T14:12:46;35.10;59.70
5556;DHT22;2801;50.972;7.856;2023-07-09T14:15:20;34.90;61.70
5556;DHT22;2801;50.972;7.856;2023-07-09T14:17:48;34.60;62.30
5556;DHT22;2801;50.972;7.856;2023-07-09T14:20:17;34.40;63.30
5556;DHT22;2801;50.972;7.856;2023-07-09T14:22:44;34.20;65.60
5556;DHT22;2801;50.972;7.856;2023-07-09T14:25:18;33.90;67.60
5556;DHT22;2801;50.972;7.856;2023-07-09T14:27:46;33.60;70.10
5556;DHT22;2801;50.972;7.856;2023-07-09T14:30:17;33.10;69.40
5556;DHT22;2801;50.972;7.856;2023-07-09T14:32:48;32.80;69.00
5556;DHT22;2801;50.972;7.856;2023-07-09T14:35:20;32.40;70.10
5556;DHT22;2801;50.972;7.856;2023-07-09T14:37:51;32.10;70.60
5556;DHT22;2801;50.972;7.856;2023-07-09T14:40:21;31.80;72.00
5556;DHT22;2801;50.972;7.856;2023-07-09T14:42:49;31.50;73.40
5556;DHT22;2801;50.972;7.856;2023-07-09T14:45:26;31.10;74.00
5556;DHT22;2801;50.972;7.856;2023-07-09T14:47:58;30.80;74.40
5556;DHT22;2801;50.972;7.856;2023-07-09T14:50:26;30.50;74.60
5556;DHT22;2801;50.972;7.856;2023-07-09T14:52:53;30.20;76.10
5556;DHT22;2801;50.972;7.856;2023-07-09T14:55:21;29.80;77.30
5556;DHT22;2801;50.972;7.856;2023-07-09T14:57:50;29.50;78.80
5556;DHT22;2801;50.972;7.856;2023-07-09T15:00:22;29.10;80.20
5556;DHT22;2801;50.972;7.856;2023-07-09T15:02:52;28.80;80.50
5556;DHT22;2801;50.972;7.856;2023-07-09T15:05:23;28.60;81.30
5556;DHT22;2801;50.972;7.856;2023-07-09T15:07:52;28.40;82.60
5556;DHT22;2801;50.972;7.856;2023-07-09T15:10:24;28.20;83.00
5556;DHT22;2801;50.972;7.856;2023-07-09T15:12:54;28.10;83.50
5556;DHT22;2801;50.972;7.856;2023-07-09T15:15:28;28.00;83.50
5556;DHT22;2801;50.972;7.856;2023-07-09T15:17:59;27.80;84.40
5556;DHT22;2801;50.972;7.856;2023-07-09T15:20:36;27.80;84.50
5556;DHT22;2801;50.972;7.856;2023-07-09T15:23:03;27.70;84.50
5556;DHT22;2801;50.972;7.856;2023-07-09T15:25:30;27.60;85.20
5556;DHT22;2801;50.972;7.856;2023-07-09T15:27:58;27.60;85.90
5556;DHT22;2801;50.972;7.856;2023-07-09T15:30:28;27.50;86.50
5556;DHT22;2801;50.972;7.856;2023-07-09T15:33:01;27.30;86.80
5556;DHT22;2801;50.972;7.856;2023-07-09T15:35:36;27.20;88.00
5556;DHT22;2801;50.972;7.856;2023-07-09T15:40:51;26.90;89.10
5556;DHT22;2801;50.972;7.856;2023-07-09T15:43:18;26.70;89.60
5556;DHT22;2801;50.972;7.856;2023-07-09T15:45:48;26.70;86.60
5556;DHT22;2801;50.972;7.856;2023-07-09T15:48:21;26.70;85.80
5556;DHT22;2801;50.972;7.856;2023-07-09T15:50:53;26.60;84.80
5556;DHT22;2801;50.972;7.856;2023-07-09T15:53:21;26.30;85.10
5556;DHT22;2801;50.972;7.856;2023-07-09T15:55:49;25.90;86.50
5556;DHT22;2801;50.972;7.856;2023-07-09T15:58:27;25.30;88.50
5556;DHT22;2801;50.972;7.856;2023-07-09T16:00:59;24.70;90.40
5556;DHT22;2801;50.972;7.856;2023-07-09T16:03:26;24.10;91.50
5556;DHT22;2801;50.972;7.856;2023-07-09T16:05:53;23.40;92.40
5556;DHT22;2801;50.972;7.856;2023-07-09T16:08:20;22.60;95.20
5556;DHT22;2801;50.972;7.856;2023-07-09T16:10:47;22.00;95.20
5556;DHT22;2801;50.972;7.856;2023-07-09T16:13:20;21.50;96.90
5556;DHT22;2801;50.972;7.856;2023-07-09T16:15:49;21.20;97.90
5556;DHT22;2801;50.972;7.856;2023-07-09T16:18:17;21.00;99.00
5556;DHT22;2801;50.972;7.856;2023-07-09T16:20:46;20.80;99.80
5556;DHT22;2801;50.972;7.856;2023-07-09T16:23:19;20.80;99.90
5556;DHT22;2801;50.972;7.856;2023-07-09T16:25:50;20.80;99.90
5556;DHT22;2801;50.972;7.856;2023-07-09T16:28:18;20.80;99.90
5556;DHT22;2801;50.972;7.856;2023-07-09T16:30:48;20.80;99.90
5556;DHT22;2801;50.972;7.856;2023-07-09T16:33:17;20.70;99.90
5556;DHT22;2801;50.972;7.856;2023-07-09T16:35:45;20.80;99.90
5556;DHT22;2801;50.972;7.856;2023-07-09T16:38:13;20.80;99.90
5556;DHT22;2801;50.972;7.856;2023-07-09T16:40:40;20.80;99.90
5556;DHT22;2801;50.972;7.856;2023-07-09T16:43:15;20.80;99.90
5556;DHT22;2801;50.972;7.856;2023-07-09T16:45:45;20.80;99.90
5556;DHT22;2801;50.972;7.856;2023-07-09T16:48:21;20.60;99.90
5556;DHT22;2801;50.972;7.856;2023-07-09T16:50:51;20.60;99.90
5556;DHT22;2801;50.972;7.856;2023-07-09T16:53:22;20.50;99.90
5556;DHT22;2801;50.972;7.856;2023-07-09T16:55:49;20.40;99.90
5556;DHT22;2801;50.972;7.856;2023-07-09T17:00:54;20.30;99.90
5556;DHT22;2801;50.972;7.856;2023-07-09T17:03:22;20.20;99.90
5556;DHT22;2801;50.972;7.856;2023-07-09T17:05:49;20.20;99.90
5556;DHT22;2801;50.972;7.856;2023-07-09T17:08:16;20.20;99.90
5556;DHT22;2801;50.972;7.856;2023-07-09T17:10:43;20.20;99.90
5556;DHT22;2801;50.972;7.856;2023-07-09T17:13:26;20.20;99.90
5556;DHT22;2801;50.972;7.856;2023-07-09T17:15:54;20.20;99.90